Time;durP1;ratioP1;P1;durP2;ratioP2;P2;SDS_P1;SDS_P2;PMS_P1;PMS_P2;Temp;Humidity;BMP_temperature;BMP_pressure;BME280_temperature;BME280_humidity;BME280_pressure;Samples;Min_cycle;Max_cycle;Signal;HPM_P1;HPM_P2
2022/09/27 00:01:28;;;;;;;2.25;0.85;;;;;;;9.36;91.02;99590.31;5034750;28;20457;-77
2022/09/27 00:03:59;;;;;;;2.60;1.00;;;;;;;9.38;91.01;99587.69;5048012;28;20079;-77
2022/09/27 00:06:27;;;;;;;3.63;0.88;;;;;;;9.39;90.92;99594.56;5032661;28;20033;-77
2022/09/27 00:08:52;;;;;;;5.30;0.80;;;;;;;9.37;90.85;99591.19;5038074;28;20025;-77
2022/09/27 00:11:30;;;;;;;2.28;0.88;;;;;;;9.36;91.06;99599.88;5042085;28;20032;-77
2022/09/27 00:13:57;;;;;;;3.20;0.98;;;;;;;9.34;91.08;99599.91;5042305;28;20021;-77
2022/09/27 00:16:26;;;;;;;2.40;0.82;;;;;;;9.34;91.11;99601.69;5041816;28;20103;-77
2022/09/27 00:18:52;;;;;;;3.13;0.82;;;;;;;9.34;91.08;99606.88;5037196;28;20112;-77
2022/09/27 00:21:18;;;;;;;3.15;0.85;;;;;;;9.33;90.89;99613.78;5036651;28;20068;-77
2022/09/27 00:23:43;;;;;;;2.00;0.80;;;;;;;9.31;90.90;99607.81;5044094;28;20053;-77
2022/09/27 00:26:13;;;;;;;3.08;0.80;;;;;;;9.34;91.34;99606.88;5037097;28;20076;-77
2022/09/27 00:28:39;;;;;;;3.40;0.85;;;;;;;9.35;91.41;99611.97;5037565;28;20067;-77
2022/09/27 00:31:15;;;;;;;4.68;0.90;;;;;;;9.37;91.11;99617.13;5036078;28;20025;-77
2022/09/27 00:33:40;;;;;;;2.38;0.85;;;;;;;9.36;91.05;99605.88;5038682;28;20048;-77
2022/09/27 00:36:05;;;;;;;4.30;0.90;;;;;;;9.35;91.07;99613.75;5039712;28;20473;-77
2022/09/27 00:38:31;;;;;;;2.35;0.80;;;;;;;9.35;91.37;99613.75;5023522;28;20025;-77
2022/09/27 00:40:56;;;;;;;3.28;0.95;;;;;;;9.34;91.03;99625.88;5036224;28;20385;-77
2022/09/27 00:43:22;;;;;;;3.03;1.00;;;;;;;9.32;90.88;99630.28;5041398;28;20029;-77
2022/09/27 00:46:02;;;;;;;3.75;0.85;;;;;;;9.33;90.94;99629.38;5042677;28;20037;-77
2022/09/27 00:48:32;;;;;;;5.05;1.00;;;;;;;9.31;90.96;99623.38;5038836;28;20111;-77
2022/09/27 00:51:02;;;;;;;2.40;0.90;;;;;;;9.27;91.32;99630.47;5044855;28;20067;-77
2022/09/27 00:53:32;;;;;;;2.53;0.80;;;;;;;9.27;91.04;99627.88;5042902;28;20041;-77
2022/09/27 00:56:01;;;;;;;2.97;0.88;;;;;;;9.26;91.18;99626.19;5035422;28;20032;-77
2022/09/27 00:58:31;;;;;;;3.20;0.65;;;;;;;9.26;91.12;99627.94;5039800;28;20040;-77
2022/09/27 01:01:03;;;;;;;2.28;0.70;;;;;;;9.25;91.21;99627.09;5032564;28;20029;-77
2022/09/27 01:03:39;;;;;;;2.88;0.77;;;;;;;9.25;90.95;99634.03;5037533;28;20026;-77
2022/09/27 01:06:06;;;;;;;4.25;0.80;;;;;;;9.26;91.06;99641.75;5051054;28;20021;-77
2022/09/27 01:08:32;;;;;;;3.40;0.57;;;;;;;9.26;91.06;99646.94;5050579;28;20447;-77
2022/09/27 01:11:12;;;;;;;3.35;0.60;;;;;;;9.27;90.96;99642.59;5042915;28;20163;-77
2022/09/27 01:13:58;;;;;;;1.67;0.50;;;;;;;9.27;90.83;99650.41;5050687;28;20118;-77
2022/09/27 01:16:34;;;;;;;2.17;0.47;;;;;;;9.26;90.49;99639.16;5052353;28;20040;-77
2022/09/27 01:19:38;;;;;;;2.85;0.38;;;;;;;9.23;90.24;99635.84;5044364;28;20025;-77
2022/09/27 01:22:40;;;;;;;3.60;0.60;;;;;;;9.22;90.67;99631.56;4982538;28;20096;-77
2022/09/27 01:25:30;;;;;;;3.22;0.50;;;;;;;9.20;90.68;99630.78;4952188;28;20034;-77
2022/09/27 01:28:37;;;;;;;3.03;0.40;;;;;;;9.18;90.71;99628.25;5031611;28;20488;-77
2022/09/27 01:31:18;;;;;;;4.05;0.60;;;;;;;9.19;90.83;99627.34;4991183;28;20092;-77
2022/09/27 01:33:52;;;;;;;2.65;0.40;;;;;;;9.19;90.81;99624.75;5047806;28;20452;-77
2022/09/27 01:36:36;;;;;;;1.17;0.30;;;;;;;9.20;91.04;99623.84;5043422;28;20100;-77
2022/09/27 01:39:23;;;;;;;1.30;0.30;;;;;;;9.23;90.79;99635.84;5043011;28;20053;-78
2022/09/27 01:42:10;;;;;;;1.77;0.30;;;;;;;9.21;90.70;99638.50;5043406;28;20024;-77
2022/09/27 01:44:46;;;;;;;1.02;0.30;;;;;;;9.20;90.96;99635.97;5038798;28;20071;-77
2022/09/27 01:47:17;;;;;;;1.33;0.30;;;;;;;9.21;90.97;99642.84;5044643;28;20029;-77
2022/09/27 01:50:04;;;;;;;3.05;0.32;;;;;;;9.20;90.66;99642.00;5044467;28;20028;-77
2022/09/27 01:52:45;;;;;;;0.98;0.38;;;;;;;9.19;90.72;99637.72;5045710;28;20111;-77
2022/09/27 01:55:16;;;;;;;2.40;0.50;;;;;;;9.19;90.60;99645.50;5039982;28;20061;-77
2022/09/27 01:57:48;;;;;;;2.80;0.30;;;;;;;9.20;90.45;99652.38;5044375;28;20040;-77
2022/09/27 02:00:13;;;;;;;1.85;0.22;;;;;;;9.19;90.40;99655.03;5037999;28;20091;-77
2022/09/27 02:02:45;;;;;;;2.22;0.43;;;;;;;9.18;90.49;99643.81;5048909;28;20029;-77
2022/09/27 02:05:16;;;;;;;2.28;0.50;;;;;;;9.17;90.34;99652.50;5037376;28;20040;-77
2022/09/27 02:07:44;;;;;;;3.53;0.40;;;;;;;9.18;90.12;99654.19;5043992;28;20052;-77
2022/09/27 02:10:18;;;;;;;3.38;0.50;;;;;;;9.18;90.10;99659.38;5051440;28;20128;-77
2022/09/27 02:13:02;;;;;;;4.30;0.40;;;;;;;9.17;89.93;99652.50;5034856;28;20034;-77
2022/09/27 02:15:34;;;;;;;2.10;0.50;;;;;;;9.16;89.81;99649.94;5045702;28;20086;-77
2022/09/27 02:18:07;;;;;;;2.33;0.50;;;;;;;9.14;89.72;99644.84;5040867;28;20055;-77
2022/09/27 02:20:37;;;;;;;1.27;0.50;;;;;;;9.12;89.79;99654.44;5036074;28;20485;-77
2022/09/27 02:23:27;;;;;;;2.63;0.50;;;;;;;9.10;89.57;99653.63;5023936;28;20032;-77
2022/09/27 02:25:59;;;;;;;2.35;0.38;;;;;;;9.07;89.61;99651.16;5047021;28;20033;-77
2022/09/27 02:28:42;;;;;;;2.85;0.75;;;;;;;9.07;89.42;99657.22;5037140;28;20075;-77
2022/09/27 02:31:08;;;;;;;2.25;0.40;;;;;;;9.06;89.49;99654.66;5043560;28;20034;-77
2022/09/27 02:33:46;;;;;;;2.90;0.43;;;;;;;9.04;89.37;99652.13;5041112;28;20029;-77
2022/09/27 02:36:11;;;;;;;4.90;0.45;;;;;;;9.01;89.23;99662.63;5035699;28;20025;-77
2022/09/27 02:38:37;;;;;;;2.70;0.73;;;;;;;8.99;89.34;99661.00;5045160;28;20083;-77
2022/09/27 02:41:03;;;;;;;1.15;0.50;;;;;;;8.98;89.19;99659.31;5048174;28;20491;-77
2022/09/27 02:43:31;;;;;;;3.55;0.60;;;;;;;8.95;89.00;99658.50;5050431;28;20043;-77
2022/09/27 02:46:02;;;;;;;2.42;0.50;;;;;;;8.92;88.94;99666.41;5045467;28;20021;-77
2022/09/27 02:49:15;;;;;;;1.63;0.30;;;;;;;8.92;88.84;99666.41;5039376;28;20545;-77
2022/09/27 02:51:56;;;;;;;1.48;0.50;;;;;;;8.89;88.82;99670.88;5040053;28;20488;-77
2022/09/27 02:54:58;;;;;;;1.60;0.30;;;;;;;8.86;88.42;99668.38;5037319;28;20021;-77
2022/09/27 02:57:44;;;;;;;1.55;0.30;;;;;;;8.85;88.14;99670.16;5037075;28;20024;-77
2022/09/27 03:00:18;;;;;;;2.70;0.70;;;;;;;8.82;87.96;99665.06;5039398;28;20401;-77
2022/09/27 03:03:27;;;;;;;3.88;0.40;;;;;;;8.83;88.21;99658.13;5039433;28;20025;-77
2022/09/27 03:06:03;;;;;;;3.65;0.50;;;;;;;8.77;87.86;99667.84;5016712;28;20028;-77
2022/09/27 03:08:29;;;;;;;1.77;0.43;;;;;;;8.74;88.21;99670.56;5046874;28;20041;-77
2022/09/27 03:10:54;;;;;;;2.30;0.45;;;;;;;8.71;87.77;99664.63;5036747;28;20084;-77
2022/09/27 03:13:19;;;;;;;2.97;0.30;;;;;;;8.68;87.65;99657.81;5035544;28;20536;-77
2022/09/27 03:15:44;;;;;;;4.53;0.60;;;;;;;8.65;87.71;99660.50;5042900;28;20020;-77
2022/09/27 03:18:10;;;;;;;1.75;0.38;;;;;;;8.62;87.66;99666.66;5049856;28;20037;-77
2022/09/27 03:20:35;;;;;;;0.95;0.20;;;;;;;8.60;87.44;99658.09;5037850;28;20025;-77
2022/09/27 03:23:00;;;;;;;3.05;0.50;;;;;;;8.58;87.47;99670.25;5037993;28;20025;-77
2022/09/27 03:25:25;;;;;;;2.83;0.52;;;;;;;8.55;87.49;99660.00;5033428;28;20039;-77
2022/09/27 03:27:51;;;;;;;3.60;0.70;;;;;;;8.55;87.48;99664.34;5039806;28;20556;-77
2022/09/27 03:30:16;;;;;;;2.83;0.40;;;;;;;8.52;87.51;99657.53;5043583;28;20103;-76
2022/09/27 03:32:45;;;;;;;3.10;0.50;;;;;;;8.51;87.46;99655.84;5032847;28;20104;-76
2022/09/27 03:35:11;;;;;;;3.67;0.50;;;;;;;8.48;87.43;99664.56;5041232;28;21714;-77
2022/09/27 03:37:37;;;;;;;2.20;0.40;;;;;;;8.47;87.30;99668.00;5038002;28;20027;-77
2022/09/27 03:40:03;;;;;;;2.30;0.55;;;;;;;8.48;87.55;99671.50;5045564;28;20025;-77
2022/09/27 03:42:28;;;;;;;3.97;0.68;;;;;;;8.46;87.32;99670.69;5032958;28;20108;-76
2022/09/27 03:44:54;;;;;;;3.83;0.60;;;;;;;8.46;87.55;99675.84;5041207;28;20103;-77
2022/09/27 03:47:19;;;;;;;3.33;0.50;;;;;;;8.44;87.53;99677.66;5035630;28;20084;-77
2022/09/27 03:49:44;;;;;;;1.88;0.47;;;;;;;8.44;87.41;99680.25;5037406;28;20464;-77
2022/09/27 03:52:09;;;;;;;2.67;0.50;;;;;;;8.43;87.67;99686.34;5041985;28;20040;-77
2022/09/27 03:54:35;;;;;;;3.13;0.40;;;;;;;8.44;87.77;99693.22;5041058;28;20031;-76
2022/09/27 03:57:00;;;;;;;2.42;0.50;;;;;;;8.45;87.57;99707.84;5035088;28;20043;-76
2022/09/27 03:59:25;;;;;;;2.20;0.43;;;;;;;8.45;87.79;99720.81;5032943;28;20485;-76
2022/09/27 04:01:51;;;;;;;2.38;0.50;;;;;;;8.47;88.05;99734.56;5039709;28;20032;-76
2022/09/27 04:04:16;;;;;;;2.95;0.40;;;;;;;8.48;88.10;99725.94;5038400;28;20079;-77
2022/09/27 04:06:41;;;;;;;2.70;0.43;;;;;;;8.47;88.02;99725.03;5045322;28;20041;-77
2022/09/27 04:09:07;;;;;;;2.35;0.55;;;;;;;8.48;88.21;99721.59;5035133;28;20021;-77
2022/09/27 04:11:32;;;;;;;2.53;0.43;;;;;;;8.45;87.68;99716.50;5050061;28;20036;-77
2022/09/27 04:13:57;;;;;;;3.95;0.50;;;;;;;8.44;87.44;99719.13;5037102;28;20044;-76
2022/09/27 04:16:23;;;;;;;1.55;0.35;;;;;;;8.42;86.91;99718.34;5038421;28;20021;-77
2022/09/27 04:18:49;;;;;;;1.25;0.50;;;;;;;8.35;86.52;99713.38;5045202;28;20381;-77
2022/09/27 04:21:14;;;;;;;0.95;0.40;;;;;;;8.31;86.29;99701.41;5033042;28;20029;-77
2022/09/27 04:23:39;;;;;;;2.15;0.40;;;;;;;8.31;86.72;99709.19;5036685;28;20029;-77
2022/09/27 04:26:05;;;;;;;2.78;0.30;;;;;;;8.31;86.72;99697.97;5045622;28;20495;-76
2022/09/27 04:28:30;;;;;;;2.28;0.40;;;;;;;8.33;86.79;99681.47;5034561;28;20032;-76
2022/09/27 04:30:56;;;;;;;3.03;0.60;;;;;;;8.35;87.08;99682.28;5036793;28;20052;-76
2022/09/27 04:33:22;;;;;;;2.22;0.40;;;;;;;8.34;87.23;99665.03;5035779;28;20026;-76
2022/09/27 04:38:31;;;;;;;2.00;0.40;;;;;;;8.34;87.05;99664.19;5043796;28;20052;-76
2022/09/27 04:41:00;;;;;;;1.13;0.30;;;;;;;8.33;87.07;99660.75;5038343;28;20025;-76
2022/09/27 04:43:26;;;;;;;3.25;0.40;;;;;;;8.32;87.04;99664.25;5031773;28;20029;-77
2022/09/27 04:45:51;;;;;;;3.10;0.30;;;;;;;8.33;87.02;99676.31;5038011;28;20029;-77
2022/09/27 04:48:17;;;;;;;3.00;0.40;;;;;;;8.32;87.28;99679.78;5039971;28;20025;-76
2022/09/27 04:50:42;;;;;;;1.25;0.38;;;;;;;8.30;87.48;99676.41;5043785;28;20480;-77
2022/09/27 04:53:13;;;;;;;1.75;0.40;;;;;;;8.30;87.61;99681.59;5036268;28;20120;-77
2022/09/27 04:55:38;;;;;;;4.68;0.40;;;;;;;8.30;87.62;99678.13;5041490;28;20037;-76
2022/09/27 04:58:03;;;;;;;3.33;0.50;;;;;;;8.30;87.64;99679.00;5040019;28;20404;-77
2022/09/27 05:00:29;;;;;;;1.88;0.40;;;;;;;8.30;87.61;99691.97;5041754;28;20017;-76
2022/09/27 05:02:54;;;;;;;2.65;0.55;;;;;;;8.30;87.60;99689.38;5042352;28;20025;-77
2022/09/27 05:05:19;;;;;;;3.97;0.57;;;;;;;8.29;87.55;99698.03;5051912;28;20026;-77
2022/09/27 05:07:45;;;;;;;1.27;0.40;;;;;;;8.30;87.75;99706.63;5041988;28;20045;-77
2022/09/27 05:10:10;;;;;;;1.90;0.47;;;;;;;8.30;87.60;99710.09;5039282;28;20086;-77
2022/09/27 05:12:35;;;;;;;1.00;0.30;;;;;;;8.31;87.45;99708.34;5038900;28;20491;-77
2022/09/27 05:15:01;;;;;;;2.38;0.30;;;;;;;8.31;87.36;99727.34;5040563;28;20455;-77
2022/09/27 05:17:26;;;;;;;2.28;0.40;;;;;;;8.26;87.46;99737.00;5039761;28;21060;-77
2022/09/27 05:19:52;;;;;;;1.25;0.22;;;;;;;8.23;87.28;99742.28;5046482;28;20029;-76
2022/09/27 05:22:18;;;;;;;0.75;0.30;;;;;;;8.18;87.46;99746.78;5036746;28;20029;-77
2022/09/27 05:24:43;;;;;;;1.67;0.30;;;;;;;8.15;87.70;99741.72;5041941;28;20107;-77
2022/09/27 05:27:12;;;;;;;1.65;0.30;;;;;;;8.14;88.13;99732.25;5053387;28;20103;-77
2022/09/27 05:29:37;;;;;;;0.93;0.30;;;;;;;8.14;88.05;99737.44;5036906;28;20030;-76
2022/09/27 05:32:03;;;;;;;4.40;0.35;;;;;;;8.12;88.01;99728.84;5024277;28;20020;-76
2022/09/27 05:34:30;;;;;;;2.75;0.28;;;;;;;8.13;88.28;99736.56;5050322;28;20036;-76
2022/09/27 05:36:55;;;;;;;1.60;0.30;;;;;;;8.14;88.65;99721.88;5038304;28;20024;-77
2022/09/27 05:39:20;;;;;;;2.53;0.40;;;;;;;8.14;88.68;99706.34;5022471;28;20029;-77
2022/09/27 05:41:49;;;;;;;1.65;0.30;;;;;;;8.14;88.52;99706.34;5053959;28;20021;-76
2022/09/27 05:44:14;;;;;;;4.38;0.43;;;;;;;8.14;88.68;99706.34;5028227;28;20469;-76
2022/09/27 05:46:39;;;;;;;1.38;0.30;;;;;;;8.14;88.74;99706.34;5034798;28;20044;-77
2022/09/27 05:49:05;;;;;;;0.95;0.20;;;;;;;8.16;88.67;99717.50;5043921;28;20524;-76
2022/09/27 05:51:31;;;;;;;0.82;0.25;;;;;;;8.15;88.90;99716.63;5050418;28;20029;-77
2022/09/27 05:53:56;;;;;;;0.77;0.25;;;;;;;8.16;88.98;99709.72;5035773;28;20389;-76
2022/09/27 05:56:22;;;;;;;2.67;0.28;;;;;;;8.16;88.77;99704.53;5056345;28;20017;-76
2022/09/27 05:58:47;;;;;;;3.38;0.30;;;;;;;8.16;89.10;99705.38;5051926;28;20476;-76
2022/09/27 06:01:12;;;;;;;1.10;0.30;;;;;;;8.16;88.91;99707.13;5044708;28;20381;-77
2022/09/27 06:03:40;;;;;;;1.00;0.35;;;;;;;8.17;89.05;99701.06;5047117;28;20074;-77
2022/09/27 06:06:06;;;;;;;3.17;0.40;;;;;;;8.16;89.04;99705.38;5052244;28;20032;-76
2022/09/27 06:08:33;;;;;;;0.88;0.30;;;;;;;8.17;89.05;99701.06;5051402;28;20048;-76
2022/09/27 06:11:03;;;;;;;1.42;0.30;;;;;;;8.17;89.03;99688.09;5049187;28;20111;-76
2022/09/27 06:13:28;;;;;;;2.28;0.40;;;;;;;8.15;88.82;99692.50;5040712;28;20025;-76
2022/09/27 06:15:54;;;;;;;2.08;0.40;;;;;;;8.13;88.63;99699.47;5037882;28;21252;-76
2022/09/27 06:18:19;;;;;;;0.80;0.35;;;;;;;8.13;88.78;99705.47;5040851;28;20074;-76
2022/09/27 06:20:45;;;;;;;1.85;0.40;;;;;;;8.13;88.87;99715.00;5046379;28;20028;-76
2022/09/27 06:23:17;;;;;;;0.90;0.40;;;;;;;8.11;88.84;99715.06;5036589;28;20473;-76
2022/09/27 06:25:43;;;;;;;;;;;;;;;8.16;88.32;99715.75;5040824;28;20029;-77
2022/09/27 06:28:09;;;;;;;2.53;0.40;;;;;;;8.12;88.21;99719.31;5045046;28;20474;-76
2022/09/27 06:30:41;;;;;;;0.77;0.40;;;;;;;8.13;88.70;99720.19;5049830;28;20017;-77
2022/09/27 06:33:11;;;;;;;3.53;0.43;;;;;;;8.12;88.70;99731.44;5036963;28;20068;-76
2022/09/27 06:35:36;;;;;;;1.20;0.40;;;;;;;8.12;88.43;99728.84;5045275;28;20060;-77
2022/09/27 06:38:08;;;;;;;3.38;0.70;;;;;;;8.12;88.31;99729.69;5039343;28;20484;-77
2022/09/27 06:40:34;;;;;;;2.50;0.47;;;;;;;8.12;88.44;99734.88;5023471;28;20025;-76
2022/09/27 06:43:08;;;;;;;2.30;0.60;;;;;;;8.12;88.37;99732.28;5034120;28;20091;-76
2022/09/27 06:45:34;;;;;;;3.00;0.60;;;;;;;8.11;88.70;99738.38;5039464;28;20392;-76
2022/09/27 06:48:01;;;;;;;1.60;0.45;;;;;;;8.12;88.61;99744.41;5045187;28;20040;-76
2022/09/27 06:50:28;;;;;;;1.13;0.50;;;;;;;8.12;88.19;99739.22;5047284;28;20071;-77
2022/09/27 06:52:53;;;;;;;1.90;0.50;;;;;;;8.13;88.37;99738.31;5052021;28;20025;-76
2022/09/27 06:55:19;;;;;;;4.63;0.60;;;;;;;8.14;88.47;99737.44;5049792;28;20407;-77
2022/09/27 07:00:28;;;;;;;2.55;0.57;;;;;;;8.17;88.63;99739.91;5048388;28;20036;-77
2022/09/27 07:02:59;;;;;;;0.63;0.45;;;;;;;8.18;88.74;99744.22;5047546;28;20033;-77
2022/09/27 07:05:26;;;;;;;2.08;0.50;;;;;;;8.21;88.71;99749.25;5048050;28;20022;-77
2022/09/27 07:07:56;;;;;;;2.05;0.43;;;;;;;8.24;88.65;99749.16;5040563;28;20045;-76
2022/09/27 07:10:22;;;;;;;1.85;0.57;;;;;;;8.24;88.50;99749.16;5034969;28;20017;-76
2022/09/27 07:12:47;;;;;;;1.88;0.45;;;;;;;8.25;88.64;99750.84;5039740;28;20036;-76
2022/09/27 07:15:14;;;;;;;3.33;0.55;;;;;;;8.28;89.08;99750.75;5034551;28;20392;-76
2022/09/27 07:17:39;;;;;;;3.55;0.60;;;;;;;8.31;88.87;99749.78;5032537;28;20022;-76
2022/09/27 07:20:05;;;;;;;1.88;0.63;;;;;;;8.33;88.61;99748.88;5037075;28;20057;-77
2022/09/27 07:22:30;;;;;;;2.25;0.70;;;;;;;8.34;88.42;99750.56;5038161;28;20057;-77
2022/09/27 07:24:56;;;;;;;0.88;0.60;;;;;;;8.34;88.67;99755.75;5038643;28;20024;-77
2022/09/27 07:27:21;;;;;;;2.40;0.60;;;;;;;8.37;88.67;99754.78;5041530;28;20021;-77
2022/09/27 07:29:47;;;;;;;2.28;0.82;;;;;;;8.40;88.88;99762.47;5038298;28;20461;-77
2022/09/27 07:32:12;;;;;;;2.28;0.80;;;;;;;8.43;88.98;99764.09;5035310;28;20032;-77
2022/09/27 07:34:37;;;;;;;3.33;0.85;;;;;;;8.45;88.75;99759.69;5035995;28;20044;-77
2022/09/27 07:37:04;;;;;;;3.67;0.90;;;;;;;8.46;88.78;99770.00;5037042;28;20075;-76
2022/09/27 07:39:30;;;;;;;3.70;0.90;;;;;;;8.47;88.62;99770.88;5015975;28;20496;-76
2022/09/27 07:41:55;;;;;;;3.22;1.00;;;;;;;8.48;88.42;99775.19;5038184;28;20024;-77
2022/09/27 07:44:20;;;;;;;2.95;0.80;;;;;;;8.50;88.54;99770.78;5040297;28;20033;-77
2022/09/27 07:46:46;;;;;;;2.50;0.85;;;;;;;8.52;88.54;99773.31;5035359;28;20762;-77
2022/09/27 07:49:11;;;;;;;2.33;0.90;;;;;;;8.52;88.65;99776.78;5038470;28;20029;-76
2022/09/27 07:51:36;;;;;;;4.88;0.90;;;;;;;8.52;88.47;99779.38;5035603;28;20324;-77
2022/09/27 07:54:01;;;;;;;2.38;1.00;;;;;;;8.53;88.60;99775.03;5031716;28;20021;-77
2022/09/27 07:56:27;;;;;;;2.47;1.08;;;;;;;8.53;88.70;99780.19;5034478;28;21123;-76
2022/09/27 07:58:52;;;;;;;1.70;1.00;;;;;;;8.53;88.77;99781.06;5035440;28;20033;-76
2022/09/27 08:01:18;;;;;;;2.65;1.20;;;;;;;8.55;88.90;99786.19;5040519;28;20024;-77
2022/09/27 08:03:43;;;;;;;3.03;1.20;;;;;;;8.57;88.82;99786.97;5034066;28;20032;-77
2022/09/27 08:06:09;;;;;;;1.85;1.10;;;;;;;8.58;88.69;99784.31;5034537;28;20546;-77
2022/09/27 08:08:35;;;;;;;1.88;1.27;;;;;;;8.61;88.72;99793.75;5037575;28;20050;-77
2022/09/27 08:11:00;;;;;;;3.33;1.35;;;;;;;8.63;89.45;99795.38;5038927;28;20094;-77
2022/09/27 08:13:25;;;;;;;2.55;1.27;;;;;;;8.68;89.27;99794.41;5035116;28;20024;-76
2022/09/27 08:15:53;;;;;;;3.10;1.40;;;;;;;8.72;89.01;99796.81;5034361;28;20029;-77
2022/09/27 08:18:20;;;;;;;2.95;1.27;;;;;;;8.76;88.74;99792.38;5036359;28;20037;-77
2022/09/27 08:20:46;;;;;;;3.30;1.33;;;;;;;8.78;89.01;99801.81;5041458;28;20464;-76
2022/09/27 08:23:11;;;;;;;3.58;1.30;;;;;;;8.82;88.84;99789.56;5039406;28;20023;-76
2022/09/27 08:25:36;;;;;;;2.35;1.50;;;;;;;8.83;88.54;99793.00;5041629;28;20036;-77
2022/09/27 08:28:03;;;;;;;2.85;1.60;;;;;;;8.84;88.82;99789.50;5039872;28;20033;-77
2022/09/27 08:30:31;;;;;;;2.55;1.80;;;;;;;8.89;88.98;99788.41;5035092;28;20042;-77
2022/09/27 08:32:58;;;;;;;2.40;1.50;;;;;;;8.90;88.41;99795.31;5037408;28;20025;-76
2022/09/27 08:35:23;;;;;;;2.95;1.73;;;;;;;8.93;88.61;99792.59;5036028;28;20032;-76
2022/09/27 08:37:58;;;;;;;2.78;1.83;;;;;;;8.96;89.02;99797.69;5039152;28;20029;-77
2022/09/27 08:40:34;;;;;;;3.53;1.90;;;;;;;9.02;88.76;99799.22;5013563;28;20040;-77
2022/09/27 08:43:10;;;;;;;3.58;1.98;;;;;;;9.06;88.77;99794.75;5037348;28;20162;-76
2022/09/27 08:45:54;;;;;;;3.72;1.85;;;;;;;9.10;88.53;99792.00;5033961;28;20515;-77
2022/09/27 08:48:20;;;;;;;3.15;2.00;;;;;;;9.14;87.96;99797.94;5034457;28;20029;-77
2022/09/27 08:50:48;;;;;;;3.42;2.40;;;;;;;9.15;87.64;99794.44;5038035;28;20489;-76
2022/09/27 08:53:13;;;;;;;3.78;2.60;;;;;;;9.16;87.60;99801.31;5043933;28;20501;-77
2022/09/27 08:55:46;;;;;;;21.13;3.13;;;;;;;9.17;87.47;99804.75;5039753;28;20503;-77
2022/09/27 08:58:31;;;;;;;4.28;2.88;;;;;;;9.17;87.61;99807.34;5016866;28;20032;-77
2022/09/27 09:01:02;;;;;;;6.78;2.88;;;;;;;9.16;87.50;99819.47;5036444;28;20423;-76
2022/09/27 09:03:29;;;;;;;6.50;3.27;;;;;;;9.16;87.46;99811.69;5041167;28;20130;-77
2022/09/27 09:06:18;;;;;;;4.65;3.33;;;;;;;9.18;87.58;99816.81;5032218;28;20291;-76
2022/09/27 09:08:55;;;;;;;4.22;3.22;;;;;;;9.16;87.26;99819.47;5032140;28;20059;-76
2022/09/27 09:14:47;;;;;;;9.05;3.72;;;;;;;9.16;87.62;99811.69;5038774;28;20121;-77
2022/09/27 09:17:51;;;;;;;5.28;3.80;;;;;;;9.20;87.72;99823.66;5037077;28;20120;-76
2022/09/27 09:20:35;;;;;;;7.25;3.78;;;;;;;9.20;87.71;99817.63;4999564;28;20048;-77
2022/09/27 09:23:20;;;;;;;5.32;3.70;;;;;;;9.23;87.61;99826.13;5035565;28;20036;-76
2022/09/27 09:25:59;;;;;;;5.32;3.97;;;;;;;9.22;87.83;99826.19;5037531;28;20033;-76
2022/09/27 09:28:27;;;;;;;7.28;4.38;;;;;;;9.23;88.08;99826.13;5020004;28;20028;-76
2022/09/27 09:31:24;;;;;;;7.25;4.60;;;;;;;9.26;88.32;99835.56;5041606;28;20025;-77
2022/09/27 09:34:08;;;;;;;8.93;5.15;;;;;;;9.26;88.34;99825.19;5038411;28;20538;-77
2022/09/27 09:36:42;;;;;;;7.05;4.53;;;;;;;9.25;88.17;99834.69;5021912;28;20604;-77
2022/09/27 09:39:46;;;;;;;6.32;4.57;;;;;;;9.23;88.10;99828.72;5038193;28;20393;-78
2022/09/27 09:42:23;;;;;;;6.30;4.35;;;;;;;9.24;87.98;99830.41;5039043;28;20040;-76
2022/09/27 09:44:55;;;;;;;6.97;4.28;;;;;;;9.25;88.10;99832.09;5033894;28;20032;-77
2022/09/27 09:47:43;;;;;;;10.15;4.80;;;;;;;9.29;88.42;99829.41;5017492;28;20029;-77
2022/09/27 09:50:22;;;;;;;6.75;4.53;;;;;;;9.33;88.07;99818.84;5038715;28;20328;-77
2022/09/27 09:52:53;;;;;;;12.60;4.88;;;;;;;9.36;88.56;99825.69;5035897;28;20029;-77
2022/09/27 09:55:22;;;;;;;7.00;4.50;;;;;;;9.37;87.65;99824.78;5036984;28;20121;-77
2022/09/27 09:58:05;;;;;;;6.65;4.57;;;;;;;9.39;88.09;99825.59;5033943;28;20060;-77
2022/09/27 10:00:31;;;;;;;6.45;4.60;;;;;;;9.39;87.95;99830.78;5035463;28;20446;-77
2022/09/27 10:02:58;;;;;;;6.05;4.53;;;;;;;9.38;88.05;99826.47;5036347;28;20029;-77
2022/09/27 10:05:26;;;;;;;7.43;4.80;;;;;;;9.34;87.90;99836.13;5040153;28;20379;-76
2022/09/27 10:07:54;;;;;;;5.45;3.28;;;;;;;9.26;86.89;99835.56;5039881;28;20057;-76
2022/09/27 10:10:19;;;;;;;3.90;2.50;;;;;;;9.14;85.17;99833.41;5037983;28;20040;-76
2022/09/27 10:12:46;;;;;;;2.78;1.70;;;;;;;9.04;84.56;99832.91;5039438;28;20079;-76
2022/09/27 10:15:16;;;;;;;2.22;1.33;;;;;;;8.96;85.19;99835.78;5036379;28;20032;-76
2022/09/27 10:17:45;;;;;;;1.50;0.90;;;;;;;8.92;84.50;99832.41;5034166;28;20033;-76
2022/09/27 10:20:25;;;;;;;1.30;0.73;;;;;;;8.93;85.81;99826.34;5035918;28;20029;-75
2022/09/27 10:22:55;;;;;;;1.33;0.70;;;;;;;8.96;85.86;99821.03;5037594;28;20021;-75
2022/09/27 10:25:21;;;;;;;3.55;0.68;;;;;;;9.03;86.79;99820.84;5036833;28;20029;-76
2022/09/27 10:27:51;;;;;;;1.73;0.80;;;;;;;9.07;85.82;99832.78;5037069;28;20056;-77
2022/09/27 10:30:33;;;;;;;2.38;0.90;;;;;;;9.09;86.25;99830.97;5017730;28;20417;-77
2022/09/27 10:33:14;;;;;;;1.58;0.90;;;;;;;9.07;85.93;99828.44;5038038;28;20396;-77
2022/09/27 10:35:43;;;;;;;2.53;1.30;;;;;;;9.13;87.01;99829.97;5034102;28;20128;-77
2022/09/27 10:38:20;;;;;;;3.00;1.30;;;;;;;9.20;87.57;99834.03;5032173;28;20504;-77
2022/09/27 10:40:45;;;;;;;2.15;1.20;;;;;;;9.24;87.16;99833.00;5013786;28;20062;-76
2022/09/27 10:43:24;;;;;;;2.80;1.50;;;;;;;9.29;87.30;99832.88;5035639;28;20852;-76
2022/09/27 10:45:57;;;;;;;2.63;1.55;;;;;;;9.33;86.39;99833.59;5034838;28;20706;-76
2022/09/27 10:48:22;;;;;;;2.10;1.10;;;;;;;9.31;85.30;99831.03;5036795;28;20025;-76
2022/09/27 10:51:00;;;;;;;1.83;1.00;;;;;;;9.27;84.83;99837.25;5034998;28;20035;-76
2022/09/27 10:53:27;;;;;;;1.52;0.90;;;;;;;9.17;85.21;99834.16;5030169;28;20588;-76
2022/09/27 10:55:53;;;;;;;1.33;0.85;;;;;;;9.16;85.24;99831.59;5027274;28;20029;-77
2022/09/27 10:58:39;;;;;;;1.40;0.65;;;;;;;9.22;85.63;99821.84;5024781;28;20079;-77
2022/09/27 11:01:11;;;;;;;1.77;0.77;;;;;;;9.27;84.93;99827.72;5027107;28;20037;-77
2022/09/27 11:03:37;;;;;;;;;;;;;;;9.36;85.74;99829.13;5019884;28;20119;-77
2022/09/27 11:06:27;;;;;;;2.05;0.60;;;;;;;9.39;85.34;99833.38;5032648;28;19916;-77
2022/09/27 11:08:54;;;;;;;1.73;0.60;;;;;;;9.42;85.19;99828.03;5035586;28;20747;-77
2022/09/27 11:11:24;;;;;;;0.85;0.40;;;;;;;9.44;84.76;99826.22;5046674;28;20504;-77
2022/09/27 11:14:06;;;;;;;1.13;0.45;;;;;;;9.46;84.50;99824.44;5041126;28;20036;-77
2022/09/27 11:16:50;;;;;;;0.85;0.30;;;;;;;9.47;84.04;99826.13;5037128;28;20419;-76
2022/09/27 11:19:55;;;;;;;0.82;0.30;;;;;;;9.49;84.04;99828.66;5039343;28;20480;-76
2022/09/27 11:22:29;;;;;;;1.20;0.40;;;;;;;9.51;84.49;99824.25;5033381;28;20032;-76
2022/09/27 11:25:19;;;;;;;0.63;0.40;;;;;;;9.54;84.19;99831.94;5036204;28;20476;-77
2022/09/27 11:28:12;;;;;;;0.75;0.30;;;;;;;9.58;83.41;99833.50;5037263;28;20032;-77
2022/09/27 11:31:07;;;;;;;1.08;0.30;;;;;;;9.62;83.80;99839.44;5041298;28;20239;-77
2022/09/27 11:33:57;;;;;;;0.73;0.20;;;;;;;9.64;84.02;99829.84;5035725;28;20106;-77
2022/09/27 11:36:34;;;;;;;1.17;0.40;;;;;;;9.66;83.07;99834.06;5035569;28;20040;-77
2022/09/27 11:39:30;;;;;;;0.90;0.40;;;;;;;9.71;83.10;99833.91;5035627;28;20073;-77
2022/09/27 11:42:27;;;;;;;0.63;0.20;;;;;;;9.75;82.86;99830.25;5034569;28;20029;-77
2022/09/27 11:45:12;;;;;;;1.05;0.20;;;;;;;9.80;81.96;99837.91;5036898;28;20029;-77
2022/09/27 11:47:44;;;;;;;1.02;0.25;;;;;;;9.77;82.15;99833.66;5034805;28;20073;-77
2022/09/27 11:50:29;;;;;;;0.85;0.30;;;;;;;9.74;82.26;99832.94;5019603;28;20515;-77
2022/09/27 11:53:10;;;;;;;0.52;0.20;;;;;;;9.71;82.73;99826.09;5034107;28;20480;-77
2022/09/27 11:55:59;;;;;;;0.98;0.30;;;;;;;9.77;83.44;99825.84;5034789;28;20112;-77
2022/09/27 11:58:40;;;;;;;0.47;0.20;;;;;;;9.74;82.20;99820.78;5035671;28;20225;-77
2022/09/27 12:01:20;;;;;;;1.55;0.25;;;;;;;9.66;80.99;99820.25;5034979;28;20036;-76
2022/09/27 12:04:04;;;;;;;1.25;0.30;;;;;;;9.60;81.27;99810.94;5034592;28;20060;-77
2022/09/27 12:06:47;;;;;;;0.63;0.20;;;;;;;9.60;81.35;99810.06;5037143;28;20044;-77
2022/09/27 12:09:18;;;;;;;0.80;0.22;;;;;;;9.56;80.15;99812.78;5036686;28;20029;-76
2022/09/27 12:11:47;;;;;;;1.67;0.40;;;;;;;9.54;80.34;99822.41;5017419;28;20104;-76